sensor_id;sensor_type;location;lat;lon;timestamp;temperature;humidity
20534;DHT22;12929;56.822;26.056;2022-08-19T00:01:49;21.40;99.90
20534;DHT22;12929;56.822;26.056;2022-08-19T00:04:26;21.30;99.90
20534;DHT22;12929;56.822;26.056;2022-08-19T00:06:54;21.40;99.90
20534;DHT22;12929;56.822;26.056;2022-08-19T00:09:23;21.40;99.90
20534;DHT22;12929;56.822;26.056;2022-08-19T00:11:51;21.30;99.90
20534;DHT22;12929;56.822;26.056;2022-08-19T00:14:20;21.30;99.90
20534;DHT22;12929;56.822;26.056;2022-08-19T00:16:48;21.30;99.90
20534;DHT22;12929;56.822;26.056;2022-08-19T00:19:16;21.20;99.90
20534;DHT22;12929;56.822;26.056;2022-08-19T00:21:44;21.30;99.90
20534;DHT22;12929;56.822;26.056;2022-08-19T00:24:13;21.30;99.90
20534;DHT22;12929;56.822;26.056;2022-08-19T00:26:43;21.30;99.90
20534;DHT22;12929;56.822;26.056;2022-08-19T00:29:12;21.20;99.90
20534;DHT22;12929;56.822;26.056;2022-08-19T00:31:40;21.20;99.90
20534;DHT22;12929;56.822;26.056;2022-08-19T00:34:10;21.20;99.90
20534;DHT22;12929;56.822;26.056;2022-08-19T00:36:39;21.20;99.90
20534;DHT22;12929;56.822;26.056;2022-08-19T00:39:08;21.10;99.90
20534;DHT22;12929;56.822;26.056;2022-08-19T00:41:35;21.10;99.90
20534;DHT22;12929;56.822;26.056;2022-08-19T00:44:05;21.10;99.90
20534;DHT22;12929;56.822;26.056;2022-08-19T00:46:35;21.10;99.90
20534;DHT22;12929;56.822;26.056;2022-08-19T00:49:19;21.10;99.90
20534;DHT22;12929;56.822;26.056;2022-08-19T00:51:53;21.00;99.90
20534;DHT22;12929;56.822;26.056;2022-08-19T00:54:22;21.00;99.90
20534;DHT22;12929;56.822;26.056;2022-08-19T00:56:58;20.90;99.90
20534;DHT22;12929;56.822;26.056;2022-08-19T00:59:28;20.90;99.90
20534;DHT22;12929;56.822;26.056;2022-08-19T01:02:16;20.90;99.90
20534;DHT22;12929;56.822;26.056;2022-08-19T01:04:44;20.80;99.90
20534;DHT22;12929;56.822;26.056;2022-08-19T01:07:12;20.80;99.90
20534;DHT22;12929;56.822;26.056;2022-08-19T01:09:43;20.90;99.90
20534;DHT22;12929;56.822;26.056;2022-08-19T01:12:11;20.90;99.90
20534;DHT22;12929;56.822;26.056;2022-08-19T01:14:39;20.80;99.90
20534;DHT22;12929;56.822;26.056;2022-08-19T01:17:09;20.80;99.90
20534;DHT22;12929;56.822;26.056;2022-08-19T01:19:40;20.70;99.90
20534;DHT22;12929;56.822;26.056;2022-08-19T01:25:02;20.80;99.90
20534;DHT22;12929;56.822;26.056;2022-08-19T01:27:44;20.70;99.90
20534;DHT22;12929;56.822;26.056;2022-08-19T01:30:15;20.70;99.90
20534;DHT22;12929;56.822;26.056;2022-08-19T01:32:44;20.70;99.90
20534;DHT22;12929;56.822;26.056;2022-08-19T01:35:13;20.70;99.90
20534;DHT22;12929;56.822;26.056;2022-08-19T01:37:59;20.70;99.90
20534;DHT22;12929;56.822;26.056;2022-08-19T01:40:31;20.60;99.90
20534;DHT22;12929;56.822;26.056;2022-08-19T01:43:01;20.60;99.90
20534;DHT22;12929;56.822;26.056;2022-08-19T01:45:31;20.60;99.90
20534;DHT22;12929;56.822;26.056;2022-08-19T01:48:00;20.60;99.90
20534;DHT22;12929;56.822;26.056;2022-08-19T01:50:30;20.60;99.90
20534;DHT22;12929;56.822;26.056;2022-08-19T01:52:58;20.60;99.90
20534;DHT22;12929;56.822;26.056;2022-08-19T01:55:36;20.60;99.90
20534;DHT22;12929;56.822;26.056;2022-08-19T01:58:14;20.60;99.90
20534;DHT22;12929;56.822;26.056;2022-08-19T02:00:43;20.50;99.90
20534;DHT22;12929;56.822;26.056;2022-08-19T02:03:11;20.50;99.90
20534;DHT22;12929;56.822;26.056;2022-08-19T02:05:39;20.60;99.90
20534;DHT22;12929;56.822;26.056;2022-08-19T02:08:08;20.50;99.90
20534;DHT22;12929;56.822;26.056;2022-08-19T02:10:42;20.50;99.90
20534;DHT22;12929;56.822;26.056;2022-08-19T02:13:12;20.50;99.90
20534;DHT22;12929;56.822;26.056;2022-08-19T02:15:40;20.40;99.90
20534;DHT22;12929;56.822;26.056;2022-08-19T02:18:08;20.40;99.90
20534;DHT22;12929;56.822;26.056;2022-08-19T02:20:37;20.40;99.90
20534;DHT22;12929;56.822;26.056;2022-08-19T02:23:06;20.50;99.90
20534;DHT22;12929;56.822;26.056;2022-08-19T02:25:43;20.30;99.90
20534;DHT22;12929;56.822;26.056;2022-08-19T02:28:11;20.30;99.90
20534;DHT22;12929;56.822;26.056;2022-08-19T02:30:45;20.30;99.90
20534;DHT22;12929;56.822;26.056;2022-08-19T02:33:13;20.40;99.90
20534;DHT22;12929;56.822;26.056;2022-08-19T02:35:42;20.30;99.90
20534;DHT22;12929;56.822;26.056;2022-08-19T02:38:10;20.30;99.90
20534;DHT22;12929;56.822;26.056;2022-08-19T02:41:01;20.30;99.90
20534;DHT22;12929;56.822;26.056;2022-08-19T02:43:32;20.30;99.90
20534;DHT22;12929;56.822;26.056;2022-08-19T02:46:18;20.30;99.90
20534;DHT22;12929;56.822;26.056;2022-08-19T02:48:53;20.30;99.90
20534;DHT22;12929;56.822;26.056;2022-08-19T02:51:27;20.30;99.90
20534;DHT22;12929;56.822;26.056;2022-08-19T02:53:55;20.20;99.90
20534;DHT22;12929;56.822;26.056;2022-08-19T02:56:23;20.20;99.90
20534;DHT22;12929;56.822;26.056;2022-08-19T02:58:55;20.30;99.90
20534;DHT22;12929;56.822;26.056;2022-08-19T03:01:30;20.20;99.90
20534;DHT22;12929;56.822;26.056;2022-08-19T03:04:01;20.20;99.90
20534;DHT22;12929;56.822;26.056;2022-08-19T03:06:29;20.20;99.90
20534;DHT22;12929;56.822;26.056;2022-08-19T03:08:57;20.10;99.90
20534;DHT22;12929;56.822;26.056;2022-08-19T03:11:29;20.20;99.90
20534;DHT22;12929;56.822;26.056;2022-08-19T03:13:59;20.20;99.90
20534;DHT22;12929;56.822;26.056;2022-08-19T03:16:29;20.10;99.90
20534;DHT22;12929;56.822;26.056;2022-08-19T03:19:00;20.10;99.90
20534;DHT22;12929;56.822;26.056;2022-08-19T03:21:32;20.10;99.90
20534;DHT22;12929;56.822;26.056;2022-08-19T03:24:06;20.10;99.90
20534;DHT22;12929;56.822;26.056;2022-08-19T03:26:37;20.10;99.90
20534;DHT22;12929;56.822;26.056;2022-08-19T03:29:06;20.10;99.90
20534;DHT22;12929;56.822;26.056;2022-08-19T03:31:36;20.10;99.90
20534;DHT22;12929;56.822;26.056;2022-08-19T03:34:25;20.10;99.90
20534;DHT22;12929;56.822;26.056;2022-08-19T03:36:59;20.10;99.90
20534;DHT22;12929;56.822;26.056;2022-08-19T03:39:27;20.10;99.90
20534;DHT22;12929;56.822;26.056;2022-08-19T03:41:55;20.10;99.90
20534;DHT22;12929;56.822;26.056;2022-08-19T03:44:49;20.10;99.90
20534;DHT22;12929;56.822;26.056;2022-08-19T03:47:16;20.10;99.90
20534;DHT22;12929;56.822;26.056;2022-08-19T03:49:45;20.10;99.90
20534;DHT22;12929;56.822;26.056;2022-08-19T03:52:12;20.10;99.90
20534;DHT22;12929;56.822;26.056;2022-08-19T03:54:40;20.10;99.90
20534;DHT22;12929;56.822;26.056;2022-08-19T03:57:08;20.10;99.90
20534;DHT22;12929;56.822;26.056;2022-08-19T03:59:38;20.10;99.90
20534;DHT22;12929;56.822;26.056;2022-08-19T04:02:12;20.10;99.90
20534;DHT22;12929;56.822;26.056;2022-08-19T04:04:42;20.10;99.90
20534;DHT22;12929;56.822;26.056;2022-08-19T04:07:12;20.10;99.90
20534;DHT22;12929;56.822;26.056;2022-08-19T04:09:43;20.10;99.90
20534;DHT22;12929;56.822;26.056;2022-08-19T04:12:11;20.10;99.90
20534;DHT22;12929;56.822;26.056;2022-08-19T04:14:39;20.10;99.90
20534;DHT22;12929;56.822;26.056;2022-08-19T04:17:07;20.10;99.90
20534;DHT22;12929;56.822;26.056;2022-08-19T04:19:36;20.10;99.90
20534;DHT22;12929;56.822;26.056;2022-08-19T04:22:04;20.10;99.90
20534;DHT22;12929;56.822;26.056;2022-08-19T04:24:32;20.00;99.90
20534;DHT22;12929;56.822;26.056;2022-08-19T04:27:01;20.10;99.90
20534;DHT22;12929;56.822;26.056;2022-08-19T04:29:29;20.10;99.90
20534;DHT22;12929;56.822;26.056;2022-08-19T04:31:58;20.10;99.90
20534;DHT22;12929;56.822;26.056;2022-08-19T04:34:35;20.10;99.90
20534;DHT22;12929;56.822;26.056;2022-08-19T04:37:24;20.10;99.90
20534;DHT22;12929;56.822;26.056;2022-08-19T04:39:51;20.10;99.90
20534;DHT22;12929;56.822;26.056;2022-08-19T04:42:38;20.10;99.90
20534;DHT22;12929;56.822;26.056;2022-08-19T04:45:14;20.10;99.90
20534;DHT22;12929;56.822;26.056;2022-08-19T04:47:44;20.10;99.90
20534;DHT22;12929;56.822;26.056;2022-08-19T04:50:27;20.10;99.90
20534;DHT22;12929;56.822;26.056;2022-08-19T04:52:55;20.10;99.90
20534;DHT22;12929;56.822;26.056;2022-08-19T04:55:24;20.10;99.90
20534;DHT22;12929;56.822;26.056;2022-08-19T04:57:54;20.10;99.90
20534;DHT22;12929;56.822;26.056;2022-08-19T05:00:22;20.20;99.90
20534;DHT22;12929;56.822;26.056;2022-08-19T05:02:50;20.20;99.90
20534;DHT22;12929;56.822;26.056;2022-08-19T05:05:18;20.20;99.90
20534;DHT22;12929;56.822;26.056;2022-08-19T05:07:47;20.20;99.90
20534;DHT22;12929;56.822;26.056;2022-08-19T05:10:14;20.20;99.90
20534;DHT22;12929;56.822;26.056;2022-08-19T05:12:42;20.20;99.90
20534;DHT22;12929;56.822;26.056;2022-08-19T05:15:10;20.30;99.90
20534;DHT22;12929;56.822;26.056;2022-08-19T05:17:38;20.30;99.90
20534;DHT22;12929;56.822;26.056;2022-08-19T05:20:25;20.30;99.90
20534;DHT22;12929;56.822;26.056;2022-08-19T05:23:12;20.30;99.90
20534;DHT22;12929;56.822;26.056;2022-08-19T05:25:48;20.30;99.90
20534;DHT22;12929;56.822;26.056;2022-08-19T05:28:16;20.40;99.90
20534;DHT22;12929;56.822;26.056;2022-08-19T05:30:43;20.40;99.90
20534;DHT22;12929;56.822;26.056;2022-08-19T05:33:13;20.40;99.90
20534;DHT22;12929;56.822;26.056;2022-08-19T05:35:41;20.50;99.90
20534;DHT22;12929;56.822;26.056;2022-08-19T05:38:09;20.50;99.90
20534;DHT22;12929;56.822;26.056;2022-08-19T05:40:39;20.50;99.90
20534;DHT22;12929;56.822;26.056;2022-08-19T05:43:07;20.50;99.90
20534;DHT22;12929;56.822;26.056;2022-08-19T05:45:39;20.50;99.90
20534;DHT22;12929;56.822;26.056;2022-08-19T05:48:08;20.50;99.90
20534;DHT22;12929;56.822;26.056;2022-08-19T05:50:40;20.60;99.90
20534;DHT22;12929;56.822;26.056;2022-08-19T05:53:08;20.60;99.90
20534;DHT22;12929;56.822;26.056;2022-08-19T05:55:36;20.60;99.90
20534;DHT22;12929;56.822;26.056;2022-08-19T05:58:05;20.70;99.90
20534;DHT22;12929;56.822;26.056;2022-08-19T06:00:36;20.70;99.90
20534;DHT22;12929;56.822;26.056;2022-08-19T06:03:04;20.70;99.90
20534;DHT22;12929;56.822;26.056;2022-08-19T06:05:40;20.70;99.90
20534;DHT22;12929;56.822;26.056;2022-08-19T06:08:15;20.80;99.90
20534;DHT22;12929;56.822;26.056;2022-08-19T06:10:45;20.90;99.90
20534;DHT22;12929;56.822;26.056;2022-08-19T06:13:13;20.90;99.90
20534;DHT22;12929;56.822;26.056;2022-08-19T06:15:41;20.90;99.90
20534;DHT22;12929;56.822;26.056;2022-08-19T06:18:12;20.90;99.90
20534;DHT22;12929;56.822;26.056;2022-08-19T06:20:41;21.00;99.90
20534;DHT22;12929;56.822;26.056;2022-08-19T06:23:21;21.10;99.90
20534;DHT22;12929;56.822;26.056;2022-08-19T06:25:50;21.10;99.90
20534;DHT22;12929;56.822;26.056;2022-08-19T06:28:17;21.10;99.90
20534;DHT22;12929;56.822;26.056;2022-08-19T06:30:45;21.20;99.90
20534;DHT22;12929;56.822;26.056;2022-08-19T06:33:13;21.20;99.90
20534;DHT22;12929;56.822;26.056;2022-08-19T06:35:42;21.30;99.90
20534;DHT22;12929;56.822;26.056;2022-08-19T06:38:15;21.40;99.90
20534;DHT22;12929;56.822;26.056;2022-08-19T06:40:43;21.40;99.90
20534;DHT22;12929;56.822;26.056;2022-08-19T06:43:16;21.50;99.90
20534;DHT22;12929;56.822;26.056;2022-08-19T06:45:44;21.50;99.90
20534;DHT22;12929;56.822;26.056;2022-08-19T06:48:13;21.60;99.90
20534;DHT22;12929;56.822;26.056;2022-08-19T06:50:44;21.70;99.90
20534;DHT22;12929;56.822;26.056;2022-08-19T06:53:11;21.70;99.90
20534;DHT22;12929;56.822;26.056;2022-08-19T06:55:39;21.80;99.90
20534;DHT22;12929;56.822;26.056;2022-08-19T06:58:08;21.90;99.90
20534;DHT22;12929;56.822;26.056;2022-08-19T07:00:37;21.90;99.90
20534;DHT22;12929;56.822;26.056;2022-08-19T07:03:04;21.90;99.90
20534;DHT22;12929;56.822;26.056;2022-08-19T07:05:41;22.00;99.90
20534;DHT22;12929;56.822;26.056;2022-08-19T07:08:13;22.00;99.90
20534;DHT22;12929;56.822;26.056;2022-08-19T07:10:45;22.10;99.90
20534;DHT22;12929;56.822;26.056;2022-08-19T07:13:13;22.20;99.90
20534;DHT22;12929;56.822;26.056;2022-08-19T07:15:41;22.20;99.90
20534;DHT22;12929;56.822;26.056;2022-08-19T07:18:09;22.30;99.90
20534;DHT22;12929;56.822;26.056;2022-08-19T07:20:39;22.30;99.90
20534;DHT22;12929;56.822;26.056;2022-08-19T07:23:08;22.30;99.90
20534;DHT22;12929;56.822;26.056;2022-08-19T07:25:43;22.40;99.90
20534;DHT22;12929;56.822;26.056;2022-08-19T07:28:19;22.50;99.90
20534;DHT22;12929;56.822;26.056;2022-08-19T07:30:51;22.60;99.90
20534;DHT22;12929;56.822;26.056;2022-08-19T07:33:19;22.60;99.90
20534;DHT22;12929;56.822;26.056;2022-08-19T07:35:47;22.70;99.90
20534;DHT22;12929;56.822;26.056;2022-08-19T07:38:16;22.70;99.90
20534;DHT22;12929;56.822;26.056;2022-08-19T07:40:45;22.70;99.90
20534;DHT22;12929;56.822;26.056;2022-08-19T07:43:13;22.80;99.90
20534;DHT22;12929;56.822;26.056;2022-08-19T07:45:44;22.90;99.90
20534;DHT22;12929;56.822;26.056;2022-08-19T07:48:12;23.00;99.90
20534;DHT22;12929;56.822;26.056;2022-08-19T07:50:40;23.00;99.90
20534;DHT22;12929;56.822;26.056;2022-08-19T07:53:07;23.00;99.90
20534;DHT22;12929;56.822;26.056;2022-08-19T07:55:36;23.00;99.90
20534;DHT22;12929;56.822;26.056;2022-08-19T07:58:11;23.00;99.90
20534;DHT22;12929;56.822;26.056;2022-08-19T08:00:40;23.20;99.90
20534;DHT22;12929;56.822;26.056;2022-08-19T08:03:09;23.20;99.90
20534;DHT22;12929;56.822;26.056;2022-08-19T08:05:37;23.30;99.90
20534;DHT22;12929;56.822;26.056;2022-08-19T08:08:23;23.40;99.90
20534;DHT22;12929;56.822;26.056;2022-08-19T08:11:17;23.40;99.90
20534;DHT22;12929;56.822;26.056;2022-08-19T08:13:47;23.40;99.90
20534;DHT22;12929;56.822;26.056;2022-08-19T08:16:34;23.50;99.90
20534;DHT22;12929;56.822;26.056;2022-08-19T08:19:14;23.60;99.90
20534;DHT22;12929;56.822;26.056;2022-08-19T08:21:54;23.60;99.90
20534;DHT22;12929;56.822;26.056;2022-08-19T08:24:26;23.60;99.90
20534;DHT22;12929;56.822;26.056;2022-08-19T08:26:59;23.60;99.90
20534;DHT22;12929;56.822;26.056;2022-08-19T08:29:28;23.80;99.90
20534;DHT22;12929;56.822;26.056;2022-08-19T08:32:01;23.80;99.90
20534;DHT22;12929;56.822;26.056;2022-08-19T08:34:29;23.90;99.90
20534;DHT22;12929;56.822;26.056;2022-08-19T08:36:56;23.90;99.90
20534;DHT22;12929;56.822;26.056;2022-08-19T08:39:24;24.10;99.90
20534;DHT22;12929;56.822;26.056;2022-08-19T08:44:53;24.30;99.90
20534;DHT22;12929;56.822;26.056;2022-08-19T08:47:25;24.30;99.90
20534;DHT22;12929;56.822;26.056;2022-08-19T08:50:00;24.40;99.90
20534;DHT22;12929;56.822;26.056;2022-08-19T08:52:31;24.40;99.90
20534;DHT22;12929;56.822;26.056;2022-08-19T08:55:12;24.40;99.90
20534;DHT22;12929;56.822;26.056;2022-08-19T09:02:57;24.60;99.90
20534;DHT22;12929;56.822;26.056;2022-08-19T09:08:37;24.70;99.90
20534;DHT22;12929;56.822;26.056;2022-08-19T09:11:18;24.70;99.90
20534;DHT22;12929;56.822;26.056;2022-08-19T09:14:14;24.80;99.90
20534;DHT22;12929;56.822;26.056;2022-08-19T09:17:08;24.90;99.90
20534;DHT22;12929;56.822;26.056;2022-08-19T09:19:56;24.90;99.90
20534;DHT22;12929;56.822;26.056;2022-08-19T09:22:24;25.00;99.90
20534;DHT22;12929;56.822;26.056;2022-08-19T09:24:54;25.00;99.90
20534;DHT22;12929;56.822;26.056;2022-08-19T09:27:24;25.00;99.90
20534;DHT22;12929;56.822;26.056;2022-08-19T09:30:23;25.00;99.90
20534;DHT22;12929;56.822;26.056;2022-08-19T09:32:54;25.20;99.90
20534;DHT22;12929;56.822;26.056;2022-08-19T09:35:28;25.20;99.90
20534;DHT22;12929;56.822;26.056;2022-08-19T09:38:22;25.20;99.90
20534;DHT22;12929;56.822;26.056;2022-08-19T09:40:52;25.30;99.90
20534;DHT22;12929;56.822;26.056;2022-08-19T09:43:24;25.30;99.90
20534;DHT22;12929;56.822;26.056;2022-08-19T09:46:10;25.40;99.90
20534;DHT22;12929;56.822;26.056;2022-08-19T09:48:44;25.50;99.90
20534;DHT22;12929;56.822;26.056;2022-08-19T09:51:22;25.50;99.90
20534;DHT22;12929;56.822;26.056;2022-08-19T09:53:52;25.60;99.90
20534;DHT22;12929;56.822;26.056;2022-08-19T09:56:25;25.60;99.90
20534;DHT22;12929;56.822;26.056;2022-08-19T09:58:54;25.60;99.90
20534;DHT22;12929;56.822;26.056;2022-08-19T10:01:25;25.70;99.90
20534;DHT22;12929;56.822;26.056;2022-08-19T10:03:58;25.80;99.90
20534;DHT22;12929;56.822;26.056;2022-08-19T10:06:29;25.90;99.90
20534;DHT22;12929;56.822;26.056;2022-08-19T10:09:12;26.10;99.90
20534;DHT22;12929;56.822;26.056;2022-08-19T10:11:42;26.10;99.90
20534;DHT22;12929;56.822;26.056;2022-08-19T10:14:20;26.10;99.90
20534;DHT22;12929;56.822;26.056;2022-08-19T10:16:51;26.10;99.90
20534;DHT22;12929;56.822;26.056;2022-08-19T10:19:19;26.20;99.90
20534;DHT22;12929;56.822;26.056;2022-08-19T10:21:53;26.20;99.90
20534;DHT22;12929;56.822;26.056;2022-08-19T10:24:26;26.30;99.90
20534;DHT22;12929;56.822;26.056;2022-08-19T10:26:55;26.30;99.90
20534;DHT22;12929;56.822;26.056;2022-08-19T10:29:27;26.20;99.90
20534;DHT22;12929;56.822;26.056;2022-08-19T10:32:03;26.20;99.90
20534;DHT22;12929;56.822;26.056;2022-08-19T10:34:37;26.40;99.90
20534;DHT22;12929;56.822;26.056;2022-08-19T10:37:16;26.50;99.90
20534;DHT22;12929;56.822;26.056;2022-08-19T10:39:54;26.50;99.90
20534;DHT22;12929;56.822;26.056;2022-08-19T10:42:22;26.60;99.90
20534;DHT22;12929;56.822;26.056;2022-08-19T10:44:50;26.60;99.90
20534;DHT22;12929;56.822;26.056;2022-08-19T10:47:18;26.70;99.90
20534;DHT22;12929;56.822;26.056;2022-08-19T10:49:52;26.80;99.90
20534;DHT22;12929;56.822;26.056;2022-08-19T10:52:40;27.00;99.90
20534;DHT22;12929;56.822;26.056;2022-08-19T10:55:22;26.80;99.90
20534;DHT22;12929;56.822;26.056;2022-08-19T10:58:16;26.70;99.90
20534;DHT22;12929;56.822;26.056;2022-08-19T11:00:52;26.80;99.90
20534;DHT22;12929;56.822;26.056;2022-08-19T11:03:21;26.70;99.90
20534;DHT22;12929;56.822;26.056;2022-08-19T11:06:07;26.50;99.90
20534;DHT22;12929;56.822;26.056;2022-08-19T11:08:38;26.40;99.90
20534;DHT22;12929;56.822;26.056;2022-08-19T11:11:08;26.40;99.90
20534;DHT22;12929;56.822;26.056;2022-08-19T11:13:39;26.60;99.90
20534;DHT22;12929;56.822;26.056;2022-08-19T11:16:17;26.90;99.90
20534;DHT22;12929;56.822;26.056;2022-08-19T11:18:52;27.10;99.90
20534;DHT22;12929;56.822;26.056;2022-08-19T11:21:29;27.10;99.90
20534;DHT22;12929;56.822;26.056;2022-08-19T11:24:06;27.10;99.90
20534;DHT22;12929;56.822;26.056;2022-08-19T11:26:36;27.20;99.90
20534;DHT22;12929;56.822;26.056;2022-08-19T11:29:06;27.20;99.90
20534;DHT22;12929;56.822;26.056;2022-08-19T11:31:40;27.20;99.90
20534;DHT22;12929;56.822;26.056;2022-08-19T11:34:15;27.20;99.90
20534;DHT22;12929;56.822;26.056;2022-08-19T11:36:45;27.40;99.90
20534;DHT22;12929;56.822;26.056;2022-08-19T11:39:17;27.40;99.90
20534;DHT22;12929;56.822;26.056;2022-08-19T11:41:46;27.50;99.90
20534;DHT22;12929;56.822;26.056;2022-08-19T11:44:13;27.40;99.90
20534;DHT22;12929;56.822;26.056;2022-08-19T11:46:42;27.50;99.90
20534;DHT22;12929;56.822;26.056;2022-08-19T11:49:16;27.50;99.90
20534;DHT22;12929;56.822;26.056;2022-08-19T11:51:47;27.50;99.90
20534;DHT22;12929;56.822;26.056;2022-08-19T11:54:17;27.60;99.90
20534;DHT22;12929;56.822;26.056;2022-08-19T11:56:46;27.50;99.90
20534;DHT22;12929;56.822;26.056;2022-08-19T11:59:17;27.60;99.90
20534;DHT22;12929;56.822;26.056;2022-08-19T12:01:45;27.70;99.90
20534;DHT22;12929;56.822;26.056;2022-08-19T12:04:13;27.60;99.90
20534;DHT22;12929;56.822;26.056;2022-08-19T12:06:41;27.60;99.90
20534;DHT22;12929;56.822;26.056;2022-08-19T12:09:09;27.70;99.90
20534;DHT22;12929;56.822;26.056;2022-08-19T12:11:38;27.80;99.90
20534;DHT22;12929;56.822;26.056;2022-08-19T12:14:10;27.50;99.90
20534;DHT22;12929;56.822;26.056;2022-08-19T12:16:41;27.60;99.90
20534;DHT22;12929;56.822;26.056;2022-08-19T12:19:19;27.60;99.90
20534;DHT22;12929;56.822;26.056;2022-08-19T12:21:49;27.50;99.90
20534;DHT22;12929;56.822;26.056;2022-08-19T12:24:17;27.70;99.90
20534;DHT22;12929;56.822;26.056;2022-08-19T12:26:51;27.80;99.90
20534;DHT22;12929;56.822;26.056;2022-08-19T12:29:21;28.00;99.90
20534;DHT22;12929;56.822;26.056;2022-08-19T12:31:58;28.10;99.90
20534;DHT22;12929;56.822;26.056;2022-08-19T12:34:31;28.10;99.90
20534;DHT22;12929;56.822;26.056;2022-08-19T12:37:02;28.10;99.90
20534;DHT22;12929;56.822;26.056;2022-08-19T12:39:37;28.00;99.90
20534;DHT22;12929;56.822;26.056;2022-08-19T12:42:06;28.10;99.90
20534;DHT22;12929;56.822;26.056;2022-08-19T12:44:37;28.20;99.90
20534;DHT22;12929;56.822;26.056;2022-08-19T12:47:09;28.20;99.90
20534;DHT22;12929;56.822;26.056;2022-08-19T12:49:37;28.30;99.90
20534;DHT22;12929;56.822;26.056;2022-08-19T12:52:25;28.40;99.90
20534;DHT22;12929;56.822;26.056;2022-08-19T12:54:55;28.40;99.90
20534;DHT22;12929;56.822;26.056;2022-08-19T12:57:24;28.50;99.90
20534;DHT22;12929;56.822;26.056;2022-08-19T13:00:08;28.50;99.90
20534;DHT22;12929;56.822;26.056;2022-08-19T13:02:40;28.40;99.90
20534;DHT22;12929;56.822;26.056;2022-08-19T13:05:10;28.40;99.90
20534;DHT22;12929;56.822;26.056;2022-08-19T13:07:40;28.40;99.90
20534;DHT22;12929;56.822;26.056;2022-08-19T13:10:11;28.50;99.90
20534;DHT22;12929;56.822;26.056;2022-08-19T13:12:39;28.60;99.90
20534;DHT22;12929;56.822;26.056;2022-08-19T13:15:08;28.60;99.90
20534;DHT22;12929;56.822;26.056;2022-08-19T13:17:38;28.70;99.90
20534;DHT22;12929;56.822;26.056;2022-08-19T13:20:08;28.70;99.90
20534;DHT22;12929;56.822;26.056;2022-08-19T13:22:38;28.80;99.90
20534;DHT22;12929;56.822;26.056;2022-08-19T13:25:09;28.70;99.90
20534;DHT22;12929;56.822;26.056;2022-08-19T13:27:38;28.70;99.90
20534;DHT22;12929;56.822;26.056;2022-08-19T13:30:09;28.70;99.90
20534;DHT22;12929;56.822;26.056;2022-08-19T13:32:58;28.60;99.90
20534;DHT22;12929;56.822;26.056;2022-08-19T13:35:41;28.60;99.90
20534;DHT22;12929;56.822;26.056;2022-08-19T13:38:10;28.60;99.90
20534;DHT22;12929;56.822;26.056;2022-08-19T13:40:39;28.50;99.90
20534;DHT22;12929;56.822;26.056;2022-08-19T13:43:08;28.70;99.90
20534;DHT22;12929;56.822;26.056;2022-08-19T13:45:51;28.70;99.90
20534;DHT22;12929;56.822;26.056;2022-08-19T13:48:21;28.80;99.90
20534;DHT22;12929;56.822;26.056;2022-08-19T13:50:48;28.80;99.90
20534;DHT22;12929;56.822;26.056;2022-08-19T13:53:17;28.90;99.90
20534;DHT22;12929;56.822;26.056;2022-08-19T13:55:45;28.80;99.90
20534;DHT22;12929;56.822;26.056;2022-08-19T13:58:13;28.80;99.90
20534;DHT22;12929;56.822;26.056;2022-08-19T14:00:43;28.80;99.90
20534;DHT22;12929;56.822;26.056;2022-08-19T14:03:11;28.80;99.90
20534;DHT22;12929;56.822;26.056;2022-08-19T14:05:39;28.80;99.90
20534;DHT22;12929;56.822;26.056;2022-08-19T14:08:07;28.90;99.90
20534;DHT22;12929;56.822;26.056;2022-08-19T14:10:36;29.00;99.90
20534;DHT22;12929;56.822;26.056;2022-08-19T14:13:04;29.00;99.90
20534;DHT22;12929;56.822;26.056;2022-08-19T14:15:32;28.90;99.90
20534;DHT22;12929;56.822;26.056;2022-08-19T14:17:59;28.90;99.90
20534;DHT22;12929;56.822;26.056;2022-08-19T14:20:27;28.90;99.90
20534;DHT22;12929;56.822;26.056;2022-08-19T14:22:56;28.90;99.90
20534;DHT22;12929;56.822;26.056;2022-08-19T14:25:26;28.80;99.90
20534;DHT22;12929;56.822;26.056;2022-08-19T14:27:55;28.80;99.90
20534;DHT22;12929;56.822;26.056;2022-08-19T14:30:29;28.90;99.90
20534;DHT22;12929;56.822;26.056;2022-08-19T14:32:58;28.90;99.90
20534;DHT22;12929;56.822;26.056;2022-08-19T14:35:28;28.90;99.90
20534;DHT22;12929;56.822;26.056;2022-08-19T14:37:57;28.90;99.90
20534;DHT22;12929;56.822;26.056;2022-08-19T14:40:27;29.00;99.90
20534;DHT22;12929;56.822;26.056;2022-08-19T14:42:58;28.90;99.90
20534;DHT22;12929;56.822;26.056;2022-08-19T14:45:34;29.00;99.90
20534;DHT22;12929;56.822;26.056;2022-08-19T14:48:04;29.00;99.90
20534;DHT22;12929;56.822;26.056;2022-08-19T14:50:32;28.90;99.90
20534;DHT22;12929;56.822;26.056;2022-08-19T14:53:08;28.90;99.90
20534;DHT22;12929;56.822;26.056;2022-08-19T14:55:47;29.00;99.90
20534;DHT22;12929;56.822;26.056;2022-08-19T14:58:15;28.90;99.90
20534;DHT22;12929;56.822;26.056;2022-08-19T15:00:58;28.90;99.90
20534;DHT22;12929;56.822;26.056;2022-08-19T15:03:28;28.70;99.90
20534;DHT22;12929;56.822;26.056;2022-08-19T15:05:56;28.70;99.90
20534;DHT22;12929;56.822;26.056;2022-08-19T15:08:26;28.60;99.90
20534;DHT22;12929;56.822;26.056;2022-08-19T15:10:55;28.50;99.90
20534;DHT22;12929;56.822;26.056;2022-08-19T15:13:24;28.50;99.90
20534;DHT22;12929;56.822;26.056;2022-08-19T15:15:53;28.50;99.90
20534;DHT22;12929;56.822;26.056;2022-08-19T15:18:21;28.50;99.90
20534;DHT22;12929;56.822;26.056;2022-08-19T15:20:50;28.50;99.90
20534;DHT22;12929;56.822;26.056;2022-08-19T15:23:19;28.50;99.90
20534;DHT22;12929;56.822;26.056;2022-08-19T15:25:47;28.50;99.90
20534;DHT22;12929;56.822;26.056;2022-08-19T15:28:15;28.50;99.90
20534;DHT22;12929;56.822;26.056;2022-08-19T15:30:43;28.40;99.90
20534;DHT22;12929;56.822;26.056;2022-08-19T15:33:11;28.20;99.90
20534;DHT22;12929;56.822;26.056;2022-08-19T15:35:42;28.20;99.90
20534;DHT22;12929;56.822;26.056;2022-08-19T15:38:10;28.10;99.90
20534;DHT22;12929;56.822;26.056;2022-08-19T15:40:41;28.00;99.90
20534;DHT22;12929;56.822;26.056;2022-08-19T15:43:09;28.00;99.90
20534;DHT22;12929;56.822;26.056;2022-08-19T15:45:37;27.90;99.90
20534;DHT22;12929;56.822;26.056;2022-08-19T15:48:06;27.80;99.90
20534;DHT22;12929;56.822;26.056;2022-08-19T15:50:34;27.70;99.90
20534;DHT22;12929;56.822;26.056;2022-08-19T15:53:07;27.50;99.90
20534;DHT22;12929;56.822;26.056;2022-08-19T15:55:41;27.50;99.90
20534;DHT22;12929;56.822;26.056;2022-08-19T15:58:13;27.40;99.90